Terminal Aerodrome Forecast
Issued by NWS Mt. Holly, NJ

Home | Current Version | Previous Version | Text Only | Print | Product List | Glossary On
Versions: 1 2 3 4 5 6 7 8 9 10 11 12
636
FTUS41 KPHI 221747
TAFACY
TAF
KACY 221747Z 2218/2318 VRB03KT P6SM BKN070
     FM230200 17007KT P6SM SCT250
     FM230900 18010KT P6SM OVC025 WS020/20035KT
     FM231100 18013KT 4SM SHRA OVC008 WS020/20045KT
     FM231400 18012G22KT 3SM SHRA OVC005=

USA.gov is the U.S. government's official web portal to all federal, state and local government web resources and services.